LIEE Airport Information

Runway Information
Runway 14 Length 9196 ft width 148 ft
Elevation 9 ft Threshold ft Heading 138
Runway 32 Length 9196 ft Width 148 ft
Elevation 4 ft Threshold ft Heading 318
Airport Frequencies
Type APP Name CAGLIARI A Frequency 118.75 MHZ
Type GND Name Elmas GND Frequency 125.425 MHZ
Type MISC Name SAR Frequency 123.1 MHZ
Type TWR Name TWR Frequency 120.6 MHZ
Airport Navaids
Type VOR-DME Name Cagliari Frequency 113400 KHZ
Type NDB Name Cagliari Frequency 371 KHZ
Airport Weather Information & NOTAM
ADDS - METARS form results

(0436 UTC 30 June 2022)
Data provider http://aviationweather.gov/metar/data/
 
METAR text: LIEE 300420Z 35002KT CAVOK 20/12 Q1011
Conditions at: LIEE (CAGLIARI/ELMAS(A, IT) observed 0420 UTC 30 June 2022
Temperature: 20.0°C (68°F)
Dewpoint: 12.0°C (54°F) [RH = 60%]
Pressure (altimeter): 29.85 inches Hg (1011.0 mb)
Winds: from the N (350 degrees) at 2 MPH (2 knots; 1.0 m/s)
Visibility: 6 or more miles (10+ km)
Ceiling: ceiling and visibility are OK
Clouds: unknown
Weather: no significant weather observed at this time

METAR text: LIEE 300350Z VRB01KT CAVOK 19/12 Q1011
Conditions at: LIEE (CAGLIARI/ELMAS(A, IT) observed 0350 UTC 30 June 2022
Temperature: 19.0°C (66°F)
Dewpoint: 12.0°C (54°F) [RH = 64%]
Pressure (altimeter): 29.85 inches Hg (1011.0 mb)
Winds: variable direction winds at 1 MPH (1 knots; 0.5 m/s)
Visibility: 6 or more miles (10+ km)
Ceiling: ceiling and visibility are OK
Clouds: unknown
Weather: no significant weather observed at this time

Forecast for: LIEE (CAGLIARI/ELMAS(A, IT)
Text: TAF LIEE 292300Z 3000/3024 VRB04KT CAVOK
Forecast period: 0000 to 0900 UTC 30 June 2022
Forecast type: FROM: standard forecast or significant change
Winds: variable direction winds at 5 MPH (4 knots; 2.1 m/s)
Visibility: 6 or more miles (10+ km)
Ceiling: unknown
Clouds: missing
Weather: NSW  (no significant weather)
Text: TEMPO 3000/3005 4000 BR
Forecast period: 0000 to 0500 UTC 30 June 2022
Forecast type: TEMPORARY: The following changes expected for less than half the time period
Visibility: 2.49 miles (4.01 km)
Ceiling: unknown
Clouds: missing
Weather: BR  (mist)
Text: BECMG 3009/3011 19010KT
Forecast period: 0900 to 1800 UTC 30 June 2022
Forecast type: BECOMING: Conditions expected to become as follows by 1100 UTC 30 June 2022
Winds: from the S (190 degrees) at 12 MPH (10 knots; 5.1 m/s)
Visibility: 6 or more miles (10+ km)
Ceiling: unknown
Clouds: missing
Weather: NSW  (no significant weather)
Text: BECMG 3018/3020 VRB04KT
Forecast period: 1800 UTC 30 June 2022 to 0000 UTC 01 July 2022
Forecast type: BECOMING: Conditions expected to become as follows by 2000 UTC 30 June 2022
Winds: variable direction winds at 5 MPH (4 knots; 2.1 m/s)
Visibility: 6 or more miles (10+ km)
Ceiling: unknown
Clouds: missing
Weather: NSW  (no significant weather)